Portada
METAR-TAF:

METAR-TAF

Aeroports :

Baraboo Wisconsin Dells Airport

Baraboo-Wisconsin Dells, Wisconsin, Estats Units d'Amèrica

latitud: 43-31-19N, longitud: 089-46-15W, altitud: 298 m

Observació

L'informe es va fer fa 19 minuts, a les 01:15 UTC
Vent calma
Temperatura 24°C
Humitat 69%
Pressió 1012 hPa
Visibilitat: 16.1 km
Cel clar

METAR: KDLL 280115Z AUTO 00000KT 10SM CLR 24/18 A2989 RMK AO2 T02380177

Hora: 20:34 (01:34 UTC)


TAF: manca

Observacions i pronòstics meteorològics de més de 4000 aeroports (METAR i TAF).

Les estacions disponibles són els punts grocs i vermells al mapa.

Posi el ratolí al punt desitjat per veure el nom de l'estació.

Feu clic per veure les observacions i els pronòstics meteorològics.

Per canviar el mapa: feu clic els botons verds amb una creu de color negre per apropar; al botó verd amb un guió per allunyar la imatge; o en les fletxes verdes per a mapes adjacents.


METAR-TAF: